Salford, Pennsylvania
Current Conditions -  °F | °C
As of 6:54 AM on Thursday 23 Oct 2014 (Local Time) from KPTW Reporting Station
Light Rain Light Rain  
Wind Chill: 50°   Ceiling: 5500
Heat Index: 50°   Visibility: 10mi
Dew Point: 43°   Wind: 13mph
Humidity: 77%   Direction: 330°NNW
Pressure: 29.8"   Gusts: NA
Location:  40.3°N, 75.45°W
Report Text: KPTW 231054Z AUTO 33011KT 10SM -RA FEW036 BKN055 OVC080 10/06 A2980 RMK AO2 RAB27 SLP088 P0000 T01000061
Loading
Personal Weather Stations






























Interactive Weather Map
Tropical Storm Tracking
New forecast layout! Learn more

10-Day Weather Forecast

Advertisements
Track Severe Weather on mobile